Time;durP1;ratioP1;P1;durP2;ratioP2;P2;SDS_P1;SDS_P2;PMS_P1;PMS_P2;Temp;Humidity;BMP_temperature;BMP_pressure;BME280_temperature;BME280_humidity;BME280_pressure;Samples;Min_cycle;Max_cycle;Signal;HPM_P1;HPM_P2
2021/10/10 00:00:39;;;;;;;25.65;15.82;;;6.70;74.00;;;;;;5015170;28;20072;-83
2021/10/10 00:03:04;;;;;;;33.75;16.98;;;6.70;74.10;;;;;;5015000;28;20120;-84
2021/10/10 00:05:30;;;;;;;22.00;16.50;;;6.70;74.30;;;;;;5015923;28;20018;-87
2021/10/10 00:07:56;;;;;;;24.58;17.00;;;6.60;74.40;;;;;;5013455;28;20124;-85
2021/10/10 00:10:22;;;;;;;31.58;18.45;;;6.60;74.50;;;;;;5015550;28;20080;-84
2021/10/10 00:12:47;;;;;;;24.23;16.42;;;6.60;74.70;;;;;;5015009;28;20101;-85
2021/10/10 00:15:14;;;;;;;26.58;16.40;;;6.60;75.00;;;;;;5006590;28;20042;-83
2021/10/10 00:17:40;;;;;;;23.85;16.30;;;6.60;75.10;;;;;;5003060;28;20022;-85
2021/10/10 00:20:07;;;;;;;32.00;17.95;;;6.50;75.10;;;;;;4982238;28;20076;-84
2021/10/10 00:22:33;;;;;;;21.80;15.85;;;6.50;75.40;;;;;;4995738;28;20025;-83
2021/10/10 00:24:59;;;;;;;31.50;17.60;;;6.50;75.50;;;;;;5014376;28;20030;-85
2021/10/10 00:27:25;;;;;;;27.65;16.85;;;6.50;75.70;;;;;;5008862;28;20515;-84
2021/10/10 00:29:51;;;;;;;25.98;15.65;;;6.40;75.70;;;;;;5018400;28;20026;-84
2021/10/10 00:32:17;;;;;;;20.23;14.13;;;6.40;75.80;;;;;;5008880;28;20082;-84
2021/10/10 00:34:43;;;;;;;22.00;15.23;;;6.40;75.90;;;;;;5007097;28;20026;-83
2021/10/10 00:37:09;;;;;;;28.27;16.70;;;6.40;75.80;;;;;;4996363;28;20124;-85
2021/10/10 00:39:35;;;;;;;23.90;16.23;;;6.40;75.80;;;;;;5015102;28;20065;-86
2021/10/10 00:42:01;;;;;;;30.90;17.15;;;6.40;75.90;;;;;;5015182;28;20064;-87
2021/10/10 00:44:28;;;;;;;26.05;14.68;;;6.40;76.10;;;;;;5004711;28;20022;-86
2021/10/10 00:46:54;;;;;;;24.35;15.82;;;6.40;76.10;;;;;;4995253;28;20014;-85
2021/10/10 00:49:19;;;;;;;22.17;14.60;;;6.40;76.20;;;;;;5015719;28;20056;-87
2021/10/10 00:51:47;;;;;;;26.35;15.75;;;6.40;76.20;;;;;;5001583;28;20033;-86
2021/10/10 00:54:14;;;;;;;24.42;15.82;;;6.30;76.30;;;;;;5004056;28;20044;-87
2021/10/10 00:56:42;;;;;;;21.58;15.00;;;6.30;76.30;;;;;;5002067;28;20053;-86
2021/10/10 00:59:12;;;;;;;22.45;15.48;;;6.30;77.00;;;;;;5012824;28;20029;-86
2021/10/10 01:01:38;;;;;;;20.42;15.65;;;6.30;76.60;;;;;;5015673;28;20038;-85
2021/10/10 01:04:04;;;;;;;22.13;14.65;;;6.30;76.50;;;;;;5014586;28;20026;-84
2021/10/10 01:06:30;;;;;;;22.98;15.38;;;6.30;76.60;;;;;;4997633;28;20106;-86
2021/10/10 01:08:56;;;;;;;26.02;16.17;;;6.20;76.60;;;;;;5017941;28;20096;-84
2021/10/10 01:11:28;;;;;;;22.73;14.65;;;6.20;76.60;;;;;;5017097;28;20068;-86
2021/10/10 01:13:54;;;;;;;25.25;14.57;;;6.20;76.60;;;;;;5019061;28;20041;-86
2021/10/10 01:16:20;;;;;;;20.15;14.02;;;6.20;76.60;;;;;;5019559;28;20037;-84
2021/10/10 01:18:46;;;;;;;26.02;15.25;;;6.20;76.60;;;;;;5020693;28;20033;-84
2021/10/10 01:21:12;;;;;;;20.35;14.45;;;6.20;76.50;;;;;;5004143;28;20491;-86
2021/10/10 01:23:38;;;;;;;22.83;13.95;;;6.20;76.40;;;;;;5015083;28;20014;-86
2021/10/10 01:26:04;;;;;;;20.10;14.57;;;6.20;76.50;;;;;;4996171;28;20026;-86
2021/10/10 01:28:29;;;;;;;21.20;14.43;;;6.20;76.50;;;;;;5001462;28;20030;-84
2021/10/10 01:30:55;;;;;;;22.92;14.50;;;6.30;76.50;;;;;;5020565;28;20118;-85
2021/10/10 01:33:21;;;;;;;24.73;15.70;;;6.30;76.40;;;;;;5018119;28;20022;-85
2021/10/10 01:35:47;;;;;;;20.73;14.55;;;6.30;76.30;;;;;;4998644;28;20446;-86
2021/10/10 01:38:18;;;;;;;20.92;14.77;;;6.30;76.30;;;;;;5003727;28;20078;-85
2021/10/10 01:40:46;;;;;;;23.60;15.23;;;6.30;76.30;;;;;;4979141;28;20476;-85
2021/10/10 01:43:12;;;;;;;19.88;14.68;;;6.30;76.20;;;;;;4978911;28;20413;-85
2021/10/10 01:45:38;;;;;;;22.42;14.73;;;6.30;76.20;;;;;;4996311;28;20562;-84
2021/10/10 01:48:04;;;;;;;24.52;15.18;;;6.30;76.50;;;;;;4995672;28;20084;-84
2021/10/10 01:50:32;;;;;;;24.70;14.45;;;6.20;76.60;;;;;;4995902;28;20169;-84
2021/10/10 01:52:58;;;;;;;22.92;14.73;;;6.20;76.70;;;;;;4994145;28;20029;-84
2021/10/10 01:55:24;;;;;;;19.13;13.57;;;6.20;76.90;;;;;;4977793;28;20505;-84
2021/10/10 01:57:50;;;;;;;19.63;13.60;;;6.20;77.00;;;;;;4997812;28;20101;-86
2021/10/10 02:00:16;;;;;;;25.27;15.07;;;6.20;77.00;;;;;;5017734;28;20041;-87
2021/10/10 02:02:42;;;;;;;23.30;14.93;;;6.20;77.20;;;;;;5014169;28;20044;-86
2021/10/10 02:05:09;;;;;;;26.48;15.95;;;6.10;77.50;;;;;;5013354;28;20029;-84
2021/10/10 02:07:36;;;;;;;30.30;15.27;;;6.10;77.60;;;;;;4995888;28;20101;-84
2021/10/10 02:10:04;;;;;;;21.58;15.43;;;6.00;77.70;;;;;;5013783;28;20095;-83
2021/10/10 02:12:29;;;;;;;;;;;6.00;77.80;;;;;;5013802;28;20049;-85
2021/10/10 02:14:55;;;;;;;23.88;16.13;;;6.00;77.30;;;;;;4995947;28;19913;-83
2021/10/10 02:17:21;;;;;;;23.65;15.40;;;5.90;77.60;;;;;;5014164;28;20018;-84
2021/10/10 02:19:47;;;;;;;25.00;15.98;;;5.90;77.80;;;;;;4997709;28;20053;-84
2021/10/10 02:22:12;;;;;;;25.25;15.18;;;5.90;77.90;;;;;;5014909;28;20066;-84
2021/10/10 02:24:38;;;;;;;27.85;15.52;;;5.90;77.90;;;;;;5014224;28;20030;-84
2021/10/10 02:27:04;;;;;;;27.92;16.45;;;5.90;78.00;;;;;;5013802;28;20107;-83
2021/10/10 02:29:31;;;;;;;19.63;15.00;;;5.90;78.00;;;;;;5014210;28;20022;-84
2021/10/10 02:31:57;;;;;;;22.75;16.20;;;5.90;78.10;;;;;;5015324;28;20491;-83
2021/10/10 02:34:23;;;;;;;22.50;14.45;;;5.90;78.10;;;;;;5017713;28;20116;-85
2021/10/10 02:36:49;;;;;;;21.38;15.20;;;5.90;78.20;;;;;;5017709;28;20037;-85
2021/10/10 02:39:15;;;;;;;21.70;15.05;;;5.90;78.20;;;;;;5014848;28;20025;-83
2021/10/10 02:41:41;;;;;;;23.08;15.65;;;5.90;78.20;;;;;;5015214;28;20049;-84
2021/10/10 02:44:07;;;;;;;27.33;15.38;;;5.90;78.20;;;;;;5014345;28;20458;-84
2021/10/10 02:46:33;;;;;;;20.98;13.52;;;5.90;78.30;;;;;;5015436;28;20049;-86
2021/10/10 02:49:01;;;;;;;27.02;14.30;;;5.90;78.30;;;;;;5015854;28;20026;-85
2021/10/10 02:51:27;;;;;;;22.98;14.43;;;5.80;78.30;;;;;;5016720;28;20014;-85
2021/10/10 02:53:53;;;;;;;21.75;14.68;;;5.90;78.30;;;;;;5018177;28;20422;-84
2021/10/10 02:56:18;;;;;;;23.08;15.27;;;5.80;78.30;;;;;;5017702;28;20029;-85
2021/10/10 02:58:44;;;;;;;27.52;14.80;;;5.80;78.30;;;;;;5018568;28;20522;-85
2021/10/10 03:01:13;;;;;;;22.65;15.10;;;5.80;78.50;;;;;;5019526;28;20592;-84
2021/10/10 03:03:39;;;;;;;25.45;15.07;;;5.80;78.70;;;;;;5003084;28;20482;-86
2021/10/10 03:06:07;;;;;;;21.35;15.57;;;5.80;78.70;;;;;;5018167;28;20064;-86
2021/10/10 03:08:33;;;;;;;;;;;5.80;78.70;;;;;;5018233;28;20018;-85
2021/10/10 03:10:59;;;;;;;21.17;14.15;;;5.70;78.30;;;;;;5018330;28;20255;-86
2021/10/10 03:13:25;;;;;;;26.70;15.07;;;5.70;78.70;;;;;;5018051;28;20083;-85
2021/10/10 03:15:51;;;;;;;24.55;15.05;;;5.70;78.90;;;;;;5017660;28;20040;-87
2021/10/10 03:18:16;;;;;;;22.15;14.43;;;5.70;79.00;;;;;;5017526;28;20084;-85
2021/10/10 03:20:42;;;;;;;21.20;14.52;;;5.70;79.00;;;;;;5021114;28;20025;-85
2021/10/10 03:23:08;;;;;;;25.98;14.93;;;5.70;79.00;;;;;;5009913;28;20026;-84
2021/10/10 03:25:34;;;;;;;18.85;12.90;;;5.70;78.90;;;;;;5018382;28;20025;-86
2021/10/10 03:28:00;;;;;;;27.63;15.10;;;5.70;78.90;;;;;;5020461;28;20025;-87
2021/10/10 03:30:25;;;;;;;21.05;13.10;;;5.70;78.80;;;;;;5003382;28;20026;-88
2021/10/10 03:32:51;;;;;;;22.75;14.38;;;5.70;78.80;;;;;;5022756;28;20022;-88
2021/10/10 03:35:17;;;;;;;23.50;13.52;;;5.70;78.70;;;;;;5004677;28;20037;-88
2021/10/10 03:37:43;;;;;;;21.08;15.30;;;5.70;79.00;;;;;;5005888;28;20034;-90
2021/10/10 03:40:11;;;;;;;23.10;13.80;;;5.70;78.80;;;;;;4981103;28;20030;-88
2021/10/10 03:42:37;;;;;;;24.00;13.63;;;5.70;78.90;;;;;;5001175;28;20090;-85
2021/10/10 03:45:05;;;;;;;21.05;14.60;;;5.80;78.80;;;;;;4986165;28;20057;-89
2021/10/10 03:47:30;;;;;;;25.35;15.27;;;5.80;78.90;;;;;;4998695;28;20025;-89
2021/10/10 03:49:56;;;;;;;30.20;15.93;;;5.80;78.70;;;;;;4998565;28;20026;-88
2021/10/10 03:52:22;;;;;;;21.30;14.07;;;5.80;78.70;;;;;;4998628;28;20030;-89
2021/10/10 03:57:24;;;;;;;19.63;13.63;;;5.70;78.70;;;;;;5003700;28;20068;-88
2021/10/10 03:59:58;;;;;;;21.40;14.32;;;5.70;78.70;;;;;;5026130;28;20036;-87
2021/10/10 04:02:24;;;;;;;20.20;13.70;;;5.70;79.60;;;;;;5025765;28;20084;-87
2021/10/10 04:04:53;;;;;;;29.35;14.77;;;5.70;79.20;;;;;;5021538;28;20073;-89
2021/10/10 04:07:20;;;;;;;26.92;15.23;;;5.70;79.40;;;;;;5026370;28;20022;-89
2021/10/10 04:09:47;;;;;;;21.27;13.98;;;5.70;79.40;;;;;;5022176;28;20053;-89
2021/10/10 04:12:12;;;;;;;22.42;15.02;;;5.70;79.40;;;;;;5001119;28;20034;-89
2021/10/10 04:14:38;;;;;;;20.10;14.20;;;5.70;79.40;;;;;;5017916;28;20036;-89
2021/10/10 04:17:05;;;;;;;20.15;14.30;;;5.70;79.30;;;;;;5021743;28;20018;-88
2021/10/10 04:19:31;;;;;;;22.92;14.98;;;5.70;79.30;;;;;;5019085;28;20033;-89
2021/10/10 04:21:58;;;;;;;23.75;14.57;;;5.80;79.40;;;;;;5017614;28;20534;-88
2021/10/10 04:24:24;;;;;;;22.35;13.63;;;5.80;79.20;;;;;;5017278;28;20022;-89
2021/10/10 04:26:49;;;;;;;28.60;15.32;;;5.80;79.20;;;;;;5000549;28;20113;-89
2021/10/10 04:29:15;;;;;;;26.23;14.80;;;5.80;79.10;;;;;;5020153;28;20032;-88
2021/10/10 04:31:41;;;;;;;28.77;15.25;;;5.90;79.00;;;;;;5019518;28;20028;-87
2021/10/10 04:34:07;;;;;;;18.05;14.05;;;5.90;78.90;;;;;;5016803;28;20034;-86
2021/10/10 04:36:33;;;;;;;25.23;15.88;;;5.90;78.80;;;;;;5014846;28;20041;-88
2021/10/10 04:38:58;;;;;;;21.50;14.02;;;5.90;78.70;;;;;;4980075;28;20037;-84
2021/10/10 04:41:24;;;;;;;18.27;14.40;;;6.00;78.60;;;;;;4998552;28;20022;-88
2021/10/10 04:43:50;;;;;;;24.88;14.52;;;6.00;78.50;;;;;;4998505;28;20106;-87
2021/10/10 04:46:16;;;;;;;30.27;14.88;;;6.00;78.30;;;;;;4997968;28;20030;-87
2021/10/10 04:48:41;;;;;;;26.30;14.38;;;6.00;78.20;;;;;;4996192;28;20053;-86
2021/10/10 04:51:07;;;;;;;22.55;14.02;;;6.00;78.10;;;;;;4995750;28;20499;-84
2021/10/10 04:53:33;;;;;;;22.67;14.02;;;6.00;77.90;;;;;;4995928;28;20399;-83
2021/10/10 04:55:59;;;;;;;22.17;15.77;;;6.00;77.90;;;;;;5001091;28;20026;-85
2021/10/10 04:58:25;;;;;;;23.20;14.45;;;6.00;77.90;;;;;;4999891;28;20022;-85
2021/10/10 05:00:50;;;;;;;25.13;14.50;;;6.10;77.90;;;;;;5015672;28;20391;-85
2021/10/10 05:03:16;;;;;;;26.70;15.90;;;6.10;78.40;;;;;;5015051;28;20447;-88
2021/10/10 05:05:42;;;;;;;22.45;14.68;;;6.10;77.80;;;;;;5015950;28;20041;-86
2021/10/10 05:08:09;;;;;;;24.17;15.00;;;6.10;77.60;;;;;;5018435;28;20025;-86
2021/10/10 05:10:36;;;;;;;22.63;14.75;;;6.20;77.40;;;;;;5015194;28;20084;-85
2021/10/10 05:13:09;;;;;;;24.27;14.37;;;6.20;77.30;;;;;;5015370;28;20040;-86
2021/10/10 05:15:35;;;;;;;19.33;13.93;;;6.20;77.10;;;;;;5016413;28;20037;-86
2021/10/10 05:18:02;;;;;;;23.38;14.75;;;6.30;77.10;;;;;;5022768;28;20029;-86
2021/10/10 05:20:28;;;;;;;29.67;15.02;;;6.30;77.20;;;;;;5020736;28;20045;-85
2021/10/10 05:22:54;;;;;;;28.42;14.30;;;6.30;77.20;;;;;;5015240;28;20018;-85
2021/10/10 05:25:19;;;;;;;22.08;13.93;;;6.30;77.10;;;;;;5015832;28;20040;-85
2021/10/10 05:27:45;;;;;;;26.83;14.10;;;6.30;77.10;;;;;;5015007;28;20034;-85
2021/10/10 05:30:11;;;;;;;25.05;14.25;;;6.40;76.90;;;;;;5018035;28;20026;-83
2021/10/10 05:32:37;;;;;;;23.35;12.65;;;6.40;76.80;;;;;;5021280;28;20054;-84
2021/10/10 05:35:06;;;;;;;25.35;14.38;;;6.50;76.50;;;;;;5018230;28;20034;-85
2021/10/10 05:37:32;;;;;;;19.23;13.02;;;6.60;76.10;;;;;;5015236;28;20443;-84
2021/10/10 05:39:58;;;;;;;23.45;14.98;;;6.70;75.80;;;;;;5014980;28;20049;-86
2021/10/10 05:42:23;;;;;;;22.90;14.02;;;6.80;75.40;;;;;;5015181;28;20372;-85
2021/10/10 05:44:49;;;;;;;24.20;13.68;;;6.80;75.60;;;;;;5014534;28;20030;-88
2021/10/10 05:47:15;;;;;;;22.45;14.15;;;6.90;75.00;;;;;;5015144;28;20030;-87
2021/10/10 05:49:41;;;;;;;27.83;14.75;;;6.80;74.90;;;;;;5014949;28;20113;-85
2021/10/10 05:52:08;;;;;;;16.23;12.25;;;6.80;74.80;;;;;;5015885;28;20022;-89
2021/10/10 05:54:36;;;;;;;25.48;14.43;;;6.90;74.90;;;;;;5013994;28;20044;-83
2021/10/10 05:57:06;;;;;;;27.88;13.15;;;6.90;74.90;;;;;;5013235;28;20037;-84
2021/10/10 05:59:35;;;;;;;22.52;14.73;;;6.90;74.70;;;;;;5013585;28;20180;-83
2021/10/10 06:02:02;;;;;;;22.27;13.38;;;7.00;74.60;;;;;;4980285;28;20416;-83
2021/10/10 06:04:28;;;;;;;29.55;14.18;;;7.10;74.70;;;;;;4994095;28;20502;-83
2021/10/10 06:06:54;;;;;;;21.60;14.52;;;7.10;74.60;;;;;;4992565;28;20027;-85
2021/10/10 06:09:19;;;;;;;24.40;13.85;;;7.20;74.50;;;;;;4994765;28;20026;-87
2021/10/10 06:11:46;;;;;;;19.40;13.25;;;7.30;74.20;;;;;;4995457;28;20527;-86
2021/10/10 06:14:12;;;;;;;25.15;14.20;;;7.30;74.00;;;;;;4996767;28;20476;-87
2021/10/10 06:16:38;;;;;;;18.33;13.70;;;7.40;73.60;;;;;;5006883;28;20022;-83
2021/10/10 06:19:04;;;;;;;22.38;12.27;;;7.50;73.40;;;;;;5014565;28;20036;-83
2021/10/10 06:21:31;;;;;;;21.88;12.35;;;7.60;72.90;;;;;;5010509;28;20023;-86
2021/10/10 06:23:57;;;;;;;21.88;13.02;;;7.60;72.50;;;;;;4994928;28;20022;-87
2021/10/10 06:26:23;;;;;;;18.90;12.27;;;7.70;72.10;;;;;;5033722;28;20103;-87
2021/10/10 06:28:49;;;;;;;20.55;11.60;;;7.80;71.80;;;;;;4999937;28;20022;-85
2021/10/10 06:31:16;;;;;;;18.08;11.63;;;7.80;71.70;;;;;;5002525;28;20026;-87
2021/10/10 06:33:41;;;;;;;21.17;11.93;;;8.00;71.50;;;;;;5011958;28;20029;-85
2021/10/10 06:36:10;;;;;;;19.08;13.02;;;8.00;71.20;;;;;;5013287;28;20035;-87
2021/10/10 06:38:36;;;;;;;14.35;10.68;;;8.10;70.90;;;;;;5020550;28;20034;-87
2021/10/10 06:41:01;;;;;;;22.92;12.02;;;8.10;70.60;;;;;;5021157;28;20036;-85
2021/10/10 06:43:27;;;;;;;18.42;11.35;;;8.10;70.50;;;;;;5025521;28;20022;-85
2021/10/10 06:45:53;;;;;;;20.98;11.68;;;8.20;70.40;;;;;;5017372;28;20036;-86
2021/10/10 06:48:19;;;;;;;19.35;12.15;;;8.30;70.00;;;;;;5017895;28;20464;-85
2021/10/10 06:50:44;;;;;;;16.63;12.82;;;8.30;69.70;;;;;;5017939;28;20034;-83
2021/10/10 06:53:10;;;;;;;21.65;12.02;;;8.40;69.40;;;;;;5017657;28;20516;-86
2021/10/10 06:55:36;;;;;;;22.48;13.05;;;8.50;69.10;;;;;;5019592;28;20487;-85
2021/10/10 06:58:02;;;;;;;19.92;12.23;;;8.60;68.70;;;;;;5023978;28;20125;-86
2021/10/10 07:00:28;;;;;;;23.27;11.65;;;8.60;68.40;;;;;;5025367;28;20037;-86
2021/10/10 07:02:54;;;;;;;22.35;12.77;;;8.70;68.30;;;;;;5014512;28;20104;-83
2021/10/10 07:05:20;;;;;;;18.95;12.77;;;8.70;67.90;;;;;;5016342;28;20033;-83
2021/10/10 07:07:46;;;;;;;25.17;11.82;;;8.80;67.90;;;;;;5018081;28;20025;-85
2021/10/10 07:10:12;;;;;;;22.92;13.23;;;8.90;67.80;;;;;;5019630;28;20025;-83
2021/10/10 07:12:39;;;;;;;22.10;13.65;;;8.90;67.50;;;;;;5018446;28;20022;-83
2021/10/10 07:15:10;;;;;;;28.58;12.95;;;9.10;67.40;;;;;;5018923;28;20080;-84
2021/10/10 07:17:36;;;;;;;22.45;12.43;;;9.60;67.20;;;;;;5009502;28;20049;-83
2021/10/10 07:20:12;;;;;;;35.75;13.98;;;10.80;65.60;;;;;;5019661;28;20033;-86
2021/10/10 07:25:05;;;;;;;22.30;12.82;;;13.60;57.80;;;;;;5017824;28;20026;-86
2021/10/10 07:27:33;;;;;;;21.17;13.80;;;14.10;55.30;;;;;;5019476;28;20064;-84
2021/10/10 07:29:59;;;;;;;22.30;12.63;;;13.90;53.80;;;;;;5032858;28;20057;-84
2021/10/10 07:32:24;;;;;;;20.25;12.18;;;13.40;54.60;;;;;;5020173;28;20022;-85
2021/10/10 07:34:50;;;;;;;24.60;13.20;;;13.00;55.30;;;;;;5005493;28;20034;-84
2021/10/10 07:37:16;;;;;;;21.65;11.95;;;12.70;56.40;;;;;;5015894;28;20036;-84
2021/10/10 07:39:43;;;;;;;22.50;13.48;;;13.10;56.10;;;;;;5016802;28;20022;-86
2021/10/10 07:42:09;;;;;;;21.00;12.57;;;13.70;55.10;;;;;;5016689;28;20153;-86
2021/10/10 07:44:40;;;;;;;21.42;12.25;;;14.50;53.30;;;;;;5017007;28;20056;-85
2021/10/10 07:49:48;;;;;;;24.08;11.68;;;16.80;49.70;;;;;;5017036;28;20472;-86
2021/10/10 07:52:15;;;;;;;17.98;11.52;;;18.20;48.00;;;;;;5017135;28;20029;-86
2021/10/10 07:54:41;;;;;;;18.40;11.07;;;19.20;44.60;;;;;;5016611;28;20034;-85
2021/10/10 07:57:06;;;;;;;18.45;11.30;;;20.00;43.30;;;;;;5016600;28;20025;-84
2021/10/10 07:59:32;;;;;;;20.52;10.73;;;20.90;41.30;;;;;;5015834;28;20156;-85
2021/10/10 08:01:58;;;;;;;19.45;9.95;;;21.50;39.00;;;;;;5015954;28;20038;-85
2021/10/10 08:04:25;;;;;;;14.07;9.00;;;22.00;38.00;;;;;;5015651;28;20033;-85
2021/10/10 08:06:51;;;;;;;;;;;22.70;36.90;;;;;;5016372;28;20022;-84
2021/10/10 08:09:17;;;;;;;14.40;9.23;;;23.50;39.80;;;;;;5015512;28;19912;-84
2021/10/10 08:11:44;;;;;;;17.83;8.13;;;24.10;34.90;;;;;;5015556;28;20104;-86
2021/10/10 08:14:10;;;;;;;14.07;7.93;;;24.20;33.60;;;;;;5015682;28;20454;-85
2021/10/10 08:16:42;;;;;;;14.90;8.20;;;24.70;33.20;;;;;;5020335;28;20354;-86
2021/10/10 08:19:09;;;;;;;12.95;8.60;;;24.90;32.40;;;;;;4997255;28;20034;-88
2021/10/10 08:21:38;;;;;;;14.07;7.33;;;24.90;31.70;;;;;;5001938;28;20050;-87
2021/10/10 08:24:05;;;;;;;10.82;7.13;;;24.80;31.90;;;;;;5011625;28;20074;-86
2021/10/10 08:26:31;;;;;;;15.67;6.77;;;24.80;31.50;;;;;;5012737;28;20022;-85
2021/10/10 08:29:05;;;;;;;10.02;6.70;;;25.00;31.10;;;;;;5012457;28;20251;-86
2021/10/10 08:31:31;;;;;;;14.85;6.45;;;24.90;31.30;;;;;;5021706;28;20026;-85
2021/10/10 08:33:57;;;;;;;10.30;6.05;;;24.60;31.10;;;;;;4997000;28;20152;-87
2021/10/10 08:36:23;;;;;;;13.55;6.47;;;24.40;31.00;;;;;;5017313;28;20028;-85
2021/10/10 08:38:49;;;;;;;12.60;6.38;;;24.30;31.10;;;;;;5015734;28;20025;-85
2021/10/10 08:41:18;;;;;;;10.18;5.47;;;23.80;31.70;;;;;;5004717;28;20110;-87
2021/10/10 08:43:46;;;;;;;12.65;6.32;;;24.20;31.90;;;;;;5017307;28;20018;-87
2021/10/10 08:46:14;;;;;;;12.32;7.03;;;24.60;31.40;;;;;;5018275;28;20049;-88
2021/10/10 08:48:40;;;;;;;10.60;5.93;;;25.20;31.50;;;;;;5022416;28;20021;-86
2021/10/10 08:51:06;;;;;;;11.02;5.78;;;25.90;30.40;;;;;;5026929;28;20089;-87
2021/10/10 08:53:32;;;;;;;7.95;6.05;;;26.50;30.00;;;;;;4998795;28;20069;-86
2021/10/10 08:55:58;;;;;;;13.63;6.85;;;26.80;29.80;;;;;;5013855;28;20594;-85
2021/10/10 08:58:25;;;;;;;11.38;7.38;;;26.50;29.90;;;;;;5015378;28;20026;-85
2021/10/10 09:01:04;;;;;;;13.25;7.85;;;26.00;29.90;;;;;;5015755;28;20022;-85
2021/10/10 09:03:29;;;;;;;10.57;6.75;;;25.70;30.60;;;;;;5014830;28;20041;-86
2021/10/10 09:05:57;;;;;;;11.40;6.20;;;26.00;29.90;;;;;;5015698;28;20029;-86
2021/10/10 09:08:23;;;;;;;13.50;6.40;;;25.90;29.60;;;;;;5015388;28;20052;-87
2021/10/10 09:11:01;;;;;;;9.27;6.30;;;25.90;29.60;;;;;;5015775;28;20026;-84
2021/10/10 09:13:36;;;;;;;12.25;6.03;;;25.70;29.90;;;;;;5004022;28;20029;-85
2021/10/10 09:16:04;;;;;;;8.85;6.07;;;25.40;29.70;;;;;;5014910;28;20419;-85
2021/10/10 09:18:39;;;;;;;11.32;5.03;;;25.60;29.70;;;;;;4988317;28;20483;-85
2021/10/10 09:21:15;;;;;;;8.43;5.15;;;25.50;29.50;;;;;;5008521;28;20038;-86
2021/10/10 09:23:47;;;;;;;8.82;6.03;;;25.60;29.70;;;;;;5015813;28;20105;-93
2021/10/10 09:26:17;;;;;;;8.27;5.28;;;26.70;29.60;;;;;;5022461;28;20057;-93
2021/10/10 09:28:49;;;;;;;5.53;4.57;;;;;;;;;;4997767;28;20029;-93
2021/10/10 09:31:16;;;;;;;8.50;4.43;;;27.40;27.70;;;;;;5013338;28;20073;-84
2021/10/10 09:33:57;;;;;;;8.95;4.80;;;26.60;28.10;;;;;;5014567;28;20534;-86
2021/10/10 09:36:26;;;;;;;7.93;4.82;;;26.10;28.70;;;;;;5021313;28;20038;-94
2021/10/10 09:38:58;;;;;;;7.47;4.90;;;25.50;29.20;;;;;;5018474;28;20056;-89
2021/10/10 09:44:17;;;;;;;6.85;4.50;;;25.60;28.90;;;;;;5001296;28;20019;-85
2021/10/10 09:46:45;;;;;;;11.38;7.03;;;25.90;29.00;;;;;;5007170;28;20076;-89
2021/10/10 09:49:27;;;;;;;8.18;4.63;;;26.00;28.70;;;;;;5010399;28;20025;-87
2021/10/10 09:51:54;;;;;;;5.35;4.70;;;26.20;28.80;;;;;;5019431;28;20033;-92
2021/10/10 09:54:20;;;;;;;6.78;4.10;;;26.20;28.40;;;;;;4998363;28;20034;-84
2021/10/10 09:57:04;;;;;;;8.27;3.33;;;26.60;28.20;;;;;;5011642;28;20021;-87
2021/10/10 09:59:30;;;;;;;6.50;3.50;;;26.40;28.30;;;;;;5019586;28;20267;-84
2021/10/10 10:01:56;;;;;;;6.20;3.67;;;25.90;28.40;;;;;;5014742;28;20141;-86
2021/10/10 10:04:22;;;;;;;8.27;4.07;;;26.30;28.20;;;;;;5018253;28;20033;-88
2021/10/10 10:06:50;;;;;;;7.50;3.92;;;26.20;28.20;;;;;;5021591;28;20016;-85
2021/10/10 10:09:16;;;;;;;6.95;3.92;;;25.60;28.20;;;;;;5014201;28;20392;-88
2021/10/10 10:11:44;;;;;;;9.18;4.80;;;24.10;28.90;;;;;;5016320;28;20021;-90
2021/10/10 10:14:11;;;;;;;11.88;4.80;;;22.20;30.40;;;;;;5021425;28;20040;-89
2021/10/10 10:16:43;;;;;;;11.05;5.75;;;21.00;32.80;;;;;;5020389;28;20062;-88
2021/10/10 10:19:21;;;;;;;5.38;4.40;;;20.00;34.10;;;;;;5020755;28;20079;-90
2021/10/10 10:21:53;;;;;;;6.63;4.97;;;19.20;35.40;;;;;;5022181;28;20038;-87
2021/10/10 10:24:21;;;;;;;9.40;4.75;;;18.30;36.70;;;;;;5004825;28;20046;-87
2021/10/10 10:26:47;;;;;;;;;;;17.50;38.00;;;;;;5002510;28;20030;-87
2021/10/10 10:29:26;;;;;;;13.07;5.75;;;17.00;37.50;;;;;;5016396;28;19912;-89
2021/10/10 10:31:55;;;;;;;12.98;5.25;;;16.50;39.30;;;;;;5011217;28;20073;-90
2021/10/10 10:34:35;;;;;;;7.72;5.72;;;16.20;40.30;;;;;;5007612;28;20033;-88
2021/10/10 10:37:02;;;;;;;8.90;4.65;;;16.10;40.40;;;;;;4989590;28;20033;-90
2021/10/10 10:39:37;;;;;;;12.70;5.85;;;15.80;41.40;;;;;;5006182;28;20034;-89
2021/10/10 10:42:05;;;;;;;10.10;5.25;;;15.70;42.00;;;;;;5011321;28;20052;-90
2021/10/10 10:45:14;;;;;;;9.85;5.68;;;15.50;42.70;;;;;;5002143;28;20024;-90
2021/10/10 10:47:47;;;;;;;6.53;5.10;;;15.40;42.90;;;;;;5003412;28;20030;-94
2021/10/10 10:50:24;;;;;;;9.10;5.25;;;15.10;43.00;;;;;;5011809;28;20041;-94
2021/10/10 10:53:03;;;;;;;6.50;4.78;;;15.00;43.30;;;;;;5014187;28;20465;-94
2021/10/10 10:55:35;;;;;;;8.35;5.38;;;15.00;43.20;;;;;;4975610;28;20434;-93
2021/10/10 10:58:22;;;;;;;9.57;4.63;;;15.00;43.90;;;;;;5032980;28;20037;-95
2021/10/10 11:00:50;;;;;;;9.40;4.90;;;15.10;43.50;;;;;;4915070;29;20033;-94
2021/10/10 11:03:18;;;;;;;;;;;15.00;43.40;;;;;;4916579;29;20036;-91
2021/10/10 11:06:11;;;;;;;8.57;4.63;;;15.00;42.90;;;;;;4898071;29;20003;-93
2021/10/10 11:08:40;;;;;;;7.53;5.25;;;15.00;43.60;;;;;;4825373;29;20070;-92
2021/10/10 11:11:18;;;;;;;8.27;4.57;;;15.00;43.90;;;;;;4835998;29;20055;-91
2021/10/10 11:13:47;;;;;;;9.10;5.47;;;15.00;42.60;;;;;;4837796;29;20444;-93
2021/10/10 11:16:28;;;;;;;7.03;4.47;;;15.00;42.90;;;;;;4833559;29;20077;-92
2021/10/10 11:19:11;;;;;;;7.60;5.00;;;14.90;42.40;;;;;;4826009;29;20054;-91
2021/10/10 11:21:41;;;;;;;11.05;6.00;;;14.70;42.90;;;;;;4845409;29;20134;-91
2021/10/10 11:24:19;;;;;;;9.43;5.22;;;14.70;43.50;;;;;;4836091;29;20593;-88
2021/10/10 11:26:46;;;;;;;6.85;5.20;;;14.70;43.80;;;;;;4818328;29;20437;-92
2021/10/10 11:29:18;;;;;;;12.23;5.68;;;14.70;43.80;;;;;;4811920;29;20458;-91
2021/10/10 11:31:46;;;;;;;9.75;5.05;;;14.60;43.70;;;;;;4811975;29;20051;-92
2021/10/10 11:34:16;;;;;;;8.50;6.20;;;14.70;43.10;;;;;;4813026;29;20035;-96
2021/10/10 11:36:54;;;;;;;7.85;5.55;;;14.70;43.40;;;;;;4814235;29;20461;-93
2021/10/10 11:39:23;;;;;;;8.98;5.32;;;14.70;42.70;;;;;;4923209;29;20521;-88
2021/10/10 11:41:51;;;;;;;12.68;6.40;;;14.70;43.10;;;;;;4903492;29;20469;-86
2021/10/10 11:44:24;;;;;;;11.77;5.60;;;14.70;43.10;;;;;;4925011;28;20501;-92
2021/10/10 11:47:05;;;;;;;10.05;5.43;;;14.70;43.20;;;;;;5025658;28;20022;-92
2021/10/10 11:50:04;;;;;;;10.13;5.70;;;14.60;43.80;;;;;;5037118;28;20034;-90
2021/10/10 11:52:47;;;;;;;9.77;5.72;;;14.60;42.90;;;;;;4983312;28;20038;-94
2021/10/10 11:58:05;;;;;;;11.88;6.65;;;14.60;43.20;;;;;;5025472;28;20069;-90
2021/10/10 12:00:33;;;;;;;12.15;5.63;;;14.70;43.20;;;;;;5021028;28;20077;-93
2021/10/10 12:03:19;;;;;;;10.48;6.35;;;14.70;43.10;;;;;;5025729;28;20075;-88
2021/10/10 12:05:47;;;;;;;8.85;5.55;;;14.80;42.80;;;;;;4991597;28;20073;-93
2021/10/10 12:08:22;;;;;;;10.07;5.78;;;14.70;42.40;;;;;;4986899;28;20012;-91
2021/10/10 12:10:56;;;;;;;8.68;6.30;;;14.70;42.80;;;;;;4998294;28;20035;-94
2021/10/10 12:13:30;;;;;;;10.30;5.72;;;14.60;42.00;;;;;;4992262;28;20025;-93
2021/10/10 12:16:00;;;;;;;7.97;6.30;;;14.50;41.90;;;;;;4995269;28;20054;-94
2021/10/10 12:18:32;;;;;;;12.57;6.25;;;14.50;42.50;;;;;;5007541;28;20026;-91
2021/10/10 12:21:25;;;;;;;12.27;8.32;;;14.50;43.00;;;;;;5008246;28;20077;-94
2021/10/10 12:24:10;;;;;;;18.35;11.85;;;14.40;42.80;;;;;;5007310;28;20089;-93
2021/10/10 12:26:49;;;;;;;12.88;8.77;;;14.50;43.30;;;;;;5006157;28;20053;-93
2021/10/10 12:29:28;;;;;;;11.35;7.18;;;14.60;43.10;;;;;;5000697;28;20081;-93
2021/10/10 12:31:55;;;;;;;10.48;6.18;;;14.70;42.50;;;;;;5000206;28;20030;-93
2021/10/10 12:34:31;;;;;;;11.88;6.53;;;14.70;41.80;;;;;;5010259;28;20064;-92
2021/10/10 12:36:57;;;;;;;10.88;6.68;;;14.70;42.00;;;;;;5018824;28;20033;-90
2021/10/10 12:39:41;;;;;;;10.70;6.57;;;14.70;41.70;;;;;;5005345;28;20411;-94
2021/10/10 12:42:08;;;;;;;11.38;6.95;;;14.80;41.60;;;;;;5021148;28;20045;-91
2021/10/10 12:44:38;;;;;;;13.07;6.65;;;14.90;42.00;;;;;;5021614;28;20030;-93
2021/10/10 12:47:06;;;;;;;8.32;5.88;;;14.80;42.00;;;;;;5005822;28;20026;-93
2021/10/10 12:49:36;;;;;;;9.85;7.15;;;14.80;42.10;;;;;;5024613;28;20493;-92
2021/10/10 12:52:12;;;;;;;11.07;7.35;;;14.80;42.30;;;;;;5028810;28;20097;-90
2021/10/10 12:54:46;;;;;;;14.88;7.78;;;14.80;42.30;;;;;;5028134;28;20101;-92
2021/10/10 12:57:15;;;;;;;16.52;6.93;;;14.80;42.50;;;;;;5006942;28;20486;-92
2021/10/10 12:59:51;;;;;;;11.02;7.43;;;14.70;42.50;;;;;;5004113;28;20033;-92